Time;durP1;ratioP1;P1;durP2;ratioP2;P2;SDS_P1;SDS_P2;PMS_P1;PMS_P2;Temp;Humidity;BMP_temperature;BMP_pressure;BME280_temperature;BME280_humidity;BME280_pressure;Samples;Min_cycle;Max_cycle;Signal;HPM_P1;HPM_P2
2022/03/18 00:00:40;;;;;;;28.90;4.80;;;9.30;99.90;;;;;;5086164;28;20331;-72
2022/03/18 00:03:05;;;;;;;28.02;4.30;;;9.30;99.90;;;;;;5086014;28;20024;-72
2022/03/18 00:05:32;;;;;;;29.65;4.15;;;9.10;99.90;;;;;;5085758;28;20062;-72
2022/03/18 00:07:57;;;;;;;26.00;3.92;;;9.00;99.90;;;;;;5085776;28;20352;-71
2022/03/18 00:10:23;;;;;;;25.92;3.65;;;9.00;99.90;;;;;;5086089;28;20036;-72
2022/03/18 00:12:52;;;;;;;28.50;4.03;;;9.10;99.90;;;;;;5073513;28;20032;-72
2022/03/18 00:15:18;;;;;;;34.10;4.43;;;9.10;99.90;;;;;;5032195;28;20033;-71
2022/03/18 00:17:43;;;;;;;31.95;4.47;;;9.10;99.90;;;;;;5065343;28;20194;-73
2022/03/18 00:20:12;;;;;;;33.72;5.00;;;9.10;99.90;;;;;;5065724;28;20032;-72
2022/03/18 00:22:40;;;;;;;25.83;5.55;;;9.00;99.90;;;;;;5047860;28;20311;-71
2022/03/18 00:25:06;;;;;;;35.80;6.05;;;9.00;99.90;;;;;;5065718;28;20020;-72
2022/03/18 00:27:32;;;;;;;42.42;7.10;;;9.10;99.90;;;;;;5064463;28;20028;-72
2022/03/18 00:29:58;;;;;;;37.78;6.55;;;9.00;99.90;;;;;;5048207;28;20051;-74
2022/03/18 00:32:24;;;;;;;29.70;5.57;;;8.90;99.90;;;;;;5073321;28;20016;-72
2022/03/18 00:34:50;;;;;;;39.25;6.55;;;8.70;99.90;;;;;;5084089;28;20036;-73
2022/03/18 00:37:16;;;;;;;33.70;6.05;;;8.70;99.90;;;;;;5084431;28;20029;-72
2022/03/18 00:39:43;;;;;;;39.72;5.15;;;8.60;99.90;;;;;;5084173;28;20023;-73
2022/03/18 00:42:09;;;;;;;37.67;5.43;;;8.60;99.90;;;;;;5084401;28;20308;-71
2022/03/18 00:44:36;;;;;;;39.03;6.45;;;8.50;99.90;;;;;;5067453;28;20020;-73
2022/03/18 00:47:02;;;;;;;31.83;5.63;;;8.40;99.90;;;;;;5084426;28;20013;-72
2022/03/18 00:52:14;;;;;;;37.33;6.10;;;8.30;99.90;;;;;;5084301;28;20242;-73
2022/03/18 00:54:43;;;;;;;36.55;5.95;;;8.20;99.90;;;;;;5067065;28;20024;-71
2022/03/18 00:57:10;;;;;;;41.95;6.65;;;8.20;99.90;;;;;;5085158;28;20024;-72
2022/03/18 00:59:36;;;;;;;32.58;5.78;;;8.10;99.90;;;;;;5067268;28;20029;-72
2022/03/18 01:02:02;;;;;;;27.92;6.18;;;8.10;99.90;;;;;;5085079;28;20039;-72
2022/03/18 01:04:29;;;;;;;38.13;5.47;;;8.00;99.90;;;;;;5084485;28;20013;-71
2022/03/18 01:06:55;;;;;;;32.00;5.47;;;7.90;99.90;;;;;;5083673;28;20036;-72
2022/03/18 01:09:23;;;;;;;30.70;5.43;;;7.90;99.90;;;;;;5083614;28;20024;-71
2022/03/18 01:11:50;;;;;;;29.42;4.80;;;7.80;99.90;;;;;;5080759;28;20017;-72
2022/03/18 01:14:17;;;;;;;35.05;5.50;;;7.70;99.90;;;;;;5047097;28;20035;-72
2022/03/18 01:16:43;;;;;;;36.45;5.90;;;7.60;99.90;;;;;;5063729;28;20025;-72
2022/03/18 01:19:09;;;;;;;29.08;5.50;;;7.60;99.90;;;;;;5063509;28;20035;-73
2022/03/18 01:21:35;;;;;;;25.00;5.65;;;7.50;99.90;;;;;;5064443;28;20021;-72
2022/03/18 01:24:01;;;;;;;33.22;5.53;;;7.50;99.90;;;;;;5064616;28;20084;-71
2022/03/18 01:26:27;;;;;;;31.13;5.63;;;7.50;99.90;;;;;;5064552;28;20023;-72
2022/03/18 01:28:53;;;;;;;32.55;6.05;;;7.40;99.90;;;;;;5064341;28;20021;-72
2022/03/18 01:31:20;;;;;;;27.90;6.03;;;7.40;99.90;;;;;;5064490;28;20025;-73
2022/03/18 01:33:45;;;;;;;29.52;5.18;;;7.40;99.90;;;;;;5063708;28;20056;-72
2022/03/18 01:36:11;;;;;;;38.92;6.00;;;7.40;99.90;;;;;;5062939;28;20350;-72
2022/03/18 01:38:37;;;;;;;41.00;5.95;;;7.40;99.90;;;;;;5063403;28;20025;-73
2022/03/18 01:41:03;;;;;;;35.03;5.70;;;7.30;99.90;;;;;;5061428;28;20048;-72
2022/03/18 01:43:36;;;;;;;29.70;5.80;;;7.20;99.90;;;;;;5062889;28;20304;-72
2022/03/18 01:46:02;;;;;;;24.13;4.78;;;7.20;99.90;;;;;;5063622;28;20017;-69
2022/03/18 01:48:28;;;;;;;27.98;5.03;;;7.20;99.90;;;;;;5062980;28;20098;-70
2022/03/18 01:50:53;;;;;;;31.08;5.38;;;7.10;99.90;;;;;;5064204;28;20045;-71
2022/03/18 01:53:19;;;;;;;36.95;6.53;;;7.20;99.90;;;;;;5063912;28;20334;-70
2022/03/18 01:55:45;;;;;;;28.42;5.75;;;7.20;99.90;;;;;;5079672;28;20021;-71
2022/03/18 01:58:10;;;;;;;28.75;5.45;;;7.20;99.90;;;;;;5079417;28;20021;-71
2022/03/18 02:00:36;;;;;;;30.55;5.50;;;7.10;99.90;;;;;;5062462;28;20021;-70
2022/03/18 02:03:02;;;;;;;28.90;5.13;;;7.10;99.90;;;;;;5063727;28;20036;-72
2022/03/18 02:05:27;;;;;;;26.65;5.15;;;7.00;99.90;;;;;;5079147;28;20028;-71
2022/03/18 02:07:53;;;;;;;29.65;5.60;;;7.00;99.90;;;;;;5063586;28;20095;-71
2022/03/18 02:10:19;;;;;;;31.73;5.85;;;7.00;99.90;;;;;;5062731;28;20025;-70
2022/03/18 02:12:44;;;;;;;31.52;5.43;;;6.90;99.90;;;;;;5073892;28;20410;-70
2022/03/18 02:15:10;;;;;;;30.60;5.88;;;6.80;99.90;;;;;;5099612;28;20047;-71
2022/03/18 02:17:37;;;;;;;29.38;4.78;;;6.80;99.90;;;;;;5082287;28;20189;-73
2022/03/18 02:20:04;;;;;;;27.70;5.03;;;6.80;99.90;;;;;;5083740;28;20088;-72
2022/03/18 02:22:45;;;;;;;32.10;5.50;;;6.70;99.90;;;;;;5083800;28;20024;-71
2022/03/18 02:25:12;;;;;;;36.30;6.40;;;6.70;99.90;;;;;;5066060;28;20025;-71
2022/03/18 02:27:39;;;;;;;30.35;5.28;;;6.60;99.90;;;;;;5083405;28;20544;-71
2022/03/18 02:30:06;;;;;;;28.75;5.10;;;6.60;99.90;;;;;;5082432;28;20016;-72
2022/03/18 02:32:33;;;;;;;33.63;6.22;;;6.60;99.90;;;;;;5083388;28;20035;-71
2022/03/18 02:35:01;;;;;;;34.42;6.55;;;6.50;99.90;;;;;;5082742;28;20031;-71
2022/03/18 02:37:27;;;;;;;33.90;6.25;;;6.50;99.90;;;;;;5082481;28;20036;-72
2022/03/18 02:39:52;;;;;;;33.40;5.13;;;6.50;99.90;;;;;;5065590;28;20021;-71
2022/03/18 02:42:18;;;;;;;39.00;6.43;;;6.50;99.90;;;;;;5063794;28;20023;-70
2022/03/18 02:44:44;;;;;;;29.40;5.90;;;6.40;99.90;;;;;;5083256;28;20017;-71
2022/03/18 02:47:10;;;;;;;28.40;5.43;;;6.40;99.90;;;;;;5083378;28;20070;-72
2022/03/18 02:49:35;;;;;;;28.02;5.18;;;6.50;99.90;;;;;;5082966;28;20059;-71
2022/03/18 02:52:01;;;;;;;29.98;5.65;;;6.50;99.90;;;;;;5083384;28;20028;-71
2022/03/18 02:54:26;;;;;;;31.08;6.03;;;6.40;99.90;;;;;;5082150;28;20038;-71
2022/03/18 02:56:52;;;;;;;28.52;5.68;;;6.40;99.90;;;;;;5085500;28;20032;-71
2022/03/18 02:59:18;;;;;;;33.70;5.50;;;6.30;99.90;;;;;;5087684;28;20319;-72
2022/03/18 03:01:44;;;;;;;27.83;5.45;;;6.30;99.90;;;;;;5086074;28;20020;-70
2022/03/18 03:04:11;;;;;;;29.13;5.22;;;6.40;99.90;;;;;;5086914;28;20031;-71
2022/03/18 03:09:23;;;;;;;26.67;5.38;;;6.50;99.90;;;;;;5086460;28;20246;-70
2022/03/18 03:11:48;;;;;;;34.88;5.10;;;6.50;99.90;;;;;;5065794;28;20021;-72
2022/03/18 03:14:14;;;;;;;29.35;4.95;;;6.40;99.90;;;;;;5067093;28;20208;-71
2022/03/18 03:16:40;;;;;;;23.65;4.60;;;6.40;99.90;;;;;;5066026;28;20055;-71
2022/03/18 03:19:06;;;;;;;28.17;5.28;;;6.30;99.90;;;;;;5066911;28;20021;-70
2022/03/18 03:21:34;;;;;;;30.10;5.05;;;6.20;99.90;;;;;;5065708;28;20250;-71
2022/03/18 03:24:01;;;;;;;23.52;5.38;;;6.10;99.90;;;;;;5066852;28;20028;-70
2022/03/18 03:26:27;;;;;;;28.13;5.28;;;6.10;99.90;;;;;;5067115;28;20100;-70
2022/03/18 03:28:53;;;;;;;30.40;5.63;;;6.00;99.90;;;;;;5065357;28;20363;-71
2022/03/18 03:31:19;;;;;;;22.55;4.93;;;6.00;99.90;;;;;;5081931;28;20024;-71
2022/03/18 03:33:45;;;;;;;33.83;4.85;;;6.00;99.90;;;;;;5066300;28;20044;-70
2022/03/18 03:36:11;;;;;;;22.95;4.68;;;6.00;99.90;;;;;;5066713;28;20020;-70
2022/03/18 03:38:37;;;;;;;17.45;4.20;;;6.10;99.90;;;;;;5048943;28;20029;-71
2022/03/18 03:41:04;;;;;;;16.95;3.80;;;6.10;99.90;;;;;;5066074;28;20017;-71
2022/03/18 03:43:30;;;;;;;23.52;4.55;;;6.10;99.90;;;;;;5064754;28;20013;-71
2022/03/18 03:45:56;;;;;;;19.77;4.60;;;6.00;99.90;;;;;;5066573;28;20088;-71
2022/03/18 03:48:21;;;;;;;24.05;4.82;;;6.00;99.90;;;;;;5066412;28;20048;-71
2022/03/18 03:50:47;;;;;;;22.77;4.63;;;5.90;99.90;;;;;;5066312;28;20049;-69
2022/03/18 03:53:12;;;;;;;21.27;4.53;;;5.90;99.90;;;;;;5048264;28;20033;-71
2022/03/18 03:55:40;;;;;;;26.00;3.72;;;5.80;99.90;;;;;;5065403;28;20308;-72
2022/03/18 03:58:07;;;;;;;18.67;4.00;;;5.80;99.90;;;;;;5066212;28;20100;-70
2022/03/18 04:00:34;;;;;;;23.35;4.70;;;5.80;99.90;;;;;;5065178;28;20233;-70
2022/03/18 04:02:59;;;;;;;18.42;3.92;;;5.80;99.90;;;;;;5064771;28;20083;-70
2022/03/18 04:05:25;;;;;;;21.92;5.70;;;5.80;99.90;;;;;;5065872;28;20037;-70
2022/03/18 04:07:51;;;;;;;24.88;4.38;;;5.70;99.90;;;;;;5064415;28;20063;-70
2022/03/18 04:10:19;;;;;;;17.88;4.07;;;5.70;99.90;;;;;;5066227;28;20017;-70
2022/03/18 04:12:44;;;;;;;13.30;4.10;;;5.70;99.90;;;;;;5076090;28;20024;-70
2022/03/18 04:15:10;;;;;;;19.90;4.68;;;5.50;99.90;;;;;;5086153;28;20066;-71
2022/03/18 04:17:37;;;;;;;13.77;4.90;;;5.50;99.90;;;;;;5086059;28;20079;-70
2022/03/18 04:20:05;;;;;;;14.13;4.03;;;5.60;99.90;;;;;;5101502;28;20017;-70
2022/03/18 04:22:31;;;;;;;12.18;3.97;;;5.50;99.90;;;;;;5084633;28;20032;-71
2022/03/18 04:24:57;;;;;;;19.20;4.63;;;5.60;99.90;;;;;;5101545;28;20245;-71
2022/03/18 04:27:23;;;;;;;21.67;5.13;;;5.50;99.90;;;;;;5085573;28;20017;-70
2022/03/18 04:29:48;;;;;;;14.27;4.35;;;5.50;99.90;;;;;;5085792;28;20375;-71
2022/03/18 04:32:14;;;;;;;15.82;3.92;;;5.50;99.90;;;;;;5101166;28;20024;-70
2022/03/18 04:34:40;;;;;;;21.95;4.35;;;5.60;99.90;;;;;;5100781;28;20028;-70
2022/03/18 04:37:05;;;;;;;13.85;4.43;;;5.50;99.90;;;;;;5101466;28;20051;-71
2022/03/18 04:39:31;;;;;;;11.95;3.88;;;5.50;99.90;;;;;;5085790;28;20031;-70
2022/03/18 04:41:57;;;;;;;15.52;4.90;;;5.50;99.90;;;;;;5083800;28;20024;-70
2022/03/18 04:44:22;;;;;;;15.45;5.03;;;5.50;99.90;;;;;;5085272;28;20081;-70
2022/03/18 04:46:48;;;;;;;14.57;5.00;;;5.50;99.90;;;;;;5101097;28;20142;-71
2022/03/18 04:49:14;;;;;;;9.70;4.68;;;5.50;99.90;;;;;;5100881;28;20040;-71
2022/03/18 04:51:40;;;;;;;8.45;4.57;;;5.50;99.90;;;;;;5085027;28;20025;-71
2022/03/18 04:54:06;;;;;;;17.77;5.35;;;5.60;99.90;;;;;;5100997;28;20216;-70
2022/03/18 04:57:32;;;;;;;12.05;4.80;;;5.60;99.90;;;;;;5084141;28;20039;-71
2022/03/18 04:59:19;;;;;;;11.90;5.75;;;5.60;99.90;;;;;;5084286;28;20084;-70
2022/03/18 05:01:47;;;;;;;20.08;5.50;;;5.60;99.90;;;;;;5084780;28;20031;-70
2022/03/18 05:04:12;;;;;;;15.48;5.57;;;5.70;99.90;;;;;;5084721;28;20016;-72
2022/03/18 05:06:39;;;;;;;19.58;6.10;;;5.70;99.90;;;;;;5084839;28;20086;-71
2022/03/18 05:09:05;;;;;;;14.13;5.53;;;5.70;99.90;;;;;;5084752;28;20379;-71
2022/03/18 05:11:31;;;;;;;21.98;6.10;;;5.70;99.90;;;;;;5100524;28;20101;-72
2022/03/18 05:13:58;;;;;;;26.20;7.30;;;5.80;99.90;;;;;;5084674;28;20020;-70
2022/03/18 05:16:25;;;;;;;22.63;6.53;;;5.80;99.90;;;;;;5083725;28;20055;-72
2022/03/18 05:18:51;;;;;;;14.95;5.57;;;5.90;99.90;;;;;;5084831;28;20069;-70
2022/03/18 05:21:17;;;;;;;19.85;6.28;;;6.10;99.90;;;;;;5082721;28;20032;-72
2022/03/18 05:23:42;;;;;;;14.15;6.25;;;6.10;99.90;;;;;;5066670;28;20047;-71
2022/03/18 05:26:08;;;;;;;13.52;6.13;;;6.10;99.90;;;;;;5084871;28;20324;-70
2022/03/18 05:28:34;;;;;;;20.50;6.35;;;6.10;99.90;;;;;;5084826;28;20055;-71
2022/03/18 05:30:59;;;;;;;17.60;6.45;;;6.10;99.90;;;;;;5084188;28;20138;-72
2022/03/18 05:33:25;;;;;;;17.05;5.70;;;6.10;99.90;;;;;;5083690;28;20300;-71
2022/03/18 05:35:51;;;;;;;16.63;5.03;;;6.20;99.90;;;;;;5100399;28;20309;-71
2022/03/18 05:38:17;;;;;;;19.95;5.45;;;6.30;99.90;;;;;;5083409;28;20090;-71
2022/03/18 05:40:43;;;;;;;28.27;5.85;;;6.40;99.90;;;;;;5084326;28;20048;-70
2022/03/18 05:43:09;;;;;;;20.13;5.32;;;6.40;99.90;;;;;;5081183;28;20087;-71
2022/03/18 05:45:35;;;;;;;21.17;5.90;;;6.60;99.90;;;;;;5083260;28;20020;-71
2022/03/18 05:48:00;;;;;;;23.15;5.18;;;6.60;99.90;;;;;;5084210;28;20020;-71
2022/03/18 05:50:26;;;;;;;29.45;7.07;;;6.50;99.90;;;;;;5083831;28;20098;-72
2022/03/18 05:52:52;;;;;;;24.85;6.00;;;6.40;99.90;;;;;;5083573;28;20030;-72
2022/03/18 05:55:18;;;;;;;31.63;7.03;;;6.40;99.90;;;;;;5049748;28;20024;-73
2022/03/18 05:57:44;;;;;;;34.22;7.45;;;6.30;99.90;;;;;;5084228;28;20032;-71
2022/03/18 06:00:10;;;;;;;48.05;8.13;;;6.20;99.90;;;;;;5083867;28;20027;-73
2022/03/18 06:02:36;;;;;;;41.85;7.65;;;6.20;99.90;;;;;;5083387;28;20348;-71
2022/03/18 06:05:02;;;;;;;42.33;7.50;;;6.30;99.90;;;;;;5083718;28;20024;-71
2022/03/18 06:07:28;;;;;;;39.55;7.70;;;6.40;99.90;;;;;;5066217;28;20032;-71
2022/03/18 06:12:40;;;;;;;50.60;7.78;;;6.60;99.90;;;;;;5071395;28;20044;-71
2022/03/18 06:15:06;;;;;;;65.57;7.60;;;6.60;99.90;;;;;;5062581;28;20203;-73
2022/03/18 06:17:31;;;;;;;78.80;6.50;;;6.70;99.90;;;;;;5063736;28;20071;-71
2022/03/18 06:19:57;;;;;;;61.55;6.97;;;6.70;99.90;;;;;;5063422;28;20231;-73
2022/03/18 06:22:22;;;;;;;47.33;5.93;;;6.60;99.90;;;;;;5062474;28;20169;-72
2022/03/18 06:24:48;;;;;;;43.03;6.30;;;6.70;99.90;;;;;;5063296;28;20088;-72
2022/03/18 06:27:14;;;;;;;32.15;6.80;;;6.70;99.90;;;;;;5062217;28;20091;-72
2022/03/18 06:29:43;;;;;;;50.40;7.10;;;6.50;99.90;;;;;;5063580;28;20051;-73
2022/03/18 06:32:09;;;;;;;63.58;7.38;;;6.40;99.90;;;;;;5062874;28;20028;-71
2022/03/18 06:34:35;;;;;;;35.88;7.40;;;6.40;99.90;;;;;;5061013;28;20025;-72
2022/03/18 06:37:01;;;;;;;42.03;7.13;;;6.30;99.90;;;;;;5062210;28;20035;-72
2022/03/18 06:39:27;;;;;;;25.52;6.78;;;6.40;99.90;;;;;;5063542;28;20250;-72
2022/03/18 06:41:54;;;;;;;36.08;6.22;;;6.40;99.90;;;;;;5063283;28;20036;-73
2022/03/18 06:44:20;;;;;;;34.45;6.10;;;6.30;99.90;;;;;;5060645;28;20021;-71
2022/03/18 06:46:46;;;;;;;22.92;5.97;;;6.40;99.90;;;;;;5045358;28;20024;-71
2022/03/18 06:49:13;;;;;;;28.05;5.45;;;6.40;99.90;;;;;;5063018;28;20087;-71
2022/03/18 06:51:39;;;;;;;32.45;5.65;;;6.40;99.90;;;;;;5062491;28;20318;-72
2022/03/18 06:54:05;;;;;;;23.30;6.15;;;6.40;99.90;;;;;;5061632;28;20266;-73
2022/03/18 06:56:32;;;;;;;39.63;6.05;;;6.40;99.90;;;;;;5063135;28;20033;-73
2022/03/18 06:58:58;;;;;;;29.73;5.53;;;6.40;99.90;;;;;;5063161;28;20052;-73
2022/03/18 07:01:24;;;;;;;26.77;5.50;;;6.40;99.90;;;;;;5061621;28;20021;-70
2022/03/18 07:03:50;;;;;;;35.95;5.90;;;6.40;99.90;;;;;;5061386;28;20056;-70
2022/03/18 07:06:16;;;;;;;32.75;5.88;;;6.50;99.90;;;;;;5062220;28;20032;-72
2022/03/18 07:08:43;;;;;;;41.05;6.20;;;6.40;99.90;;;;;;5045535;28;20272;-71
2022/03/18 07:11:13;;;;;;;52.45;5.82;;;6.50;99.90;;;;;;5028676;28;20362;-71
2022/03/18 07:13:41;;;;;;;26.88;5.22;;;6.50;99.90;;;;;;5080859;28;20028;-71
2022/03/18 07:18:53;;;;;;;66.50;5.93;;;6.60;99.90;;;;;;5082069;28;20403;-72
2022/03/18 07:21:19;;;;;;;33.47;5.85;;;6.80;99.90;;;;;;5082841;28;20251;-72
2022/03/18 07:23:44;;;;;;;58.05;6.13;;;6.90;99.90;;;;;;5082618;28;20083;-73
2022/03/18 07:26:10;;;;;;;42.90;6.20;;;6.90;99.90;;;;;;5082861;28;20027;-70
2022/03/18 07:28:35;;;;;;;49.20;5.95;;;6.90;99.90;;;;;;5082806;28;20016;-73
2022/03/18 07:31:01;;;;;;;32.10;5.47;;;7.00;99.90;;;;;;5064768;28;20074;-72
2022/03/18 07:33:27;;;;;;;32.40;5.35;;;7.00;99.90;;;;;;5097648;28;20311;-73
2022/03/18 07:35:53;;;;;;;40.85;5.57;;;6.90;99.90;;;;;;5082840;28;20235;-72
2022/03/18 07:38:20;;;;;;;23.63;5.88;;;6.90;99.90;;;;;;5098383;28;20025;-71
2022/03/18 07:40:46;;;;;;;23.95;5.25;;;6.90;99.90;;;;;;5082573;28;20323;-71
2022/03/18 07:43:12;;;;;;;22.52;5.00;;;7.00;99.90;;;;;;5082131;28;20029;-73
2022/03/18 07:45:38;;;;;;;26.35;5.30;;;7.00;99.90;;;;;;5084866;28;20020;-73
2022/03/18 07:48:07;;;;;;;33.33;5.25;;;7.00;99.90;;;;;;5085186;28;20062;-72
2022/03/18 07:50:35;;;;;;;20.27;5.10;;;7.10;99.90;;;;;;5084491;28;20066;-71
2022/03/18 07:53:03;;;;;;;37.72;5.70;;;7.20;99.90;;;;;;5084682;28;20029;-70
2022/03/18 07:55:31;;;;;;;21.05;6.68;;;7.20;99.90;;;;;;5051516;28;20028;-73
2022/03/18 07:57:57;;;;;;;24.70;6.07;;;7.20;99.90;;;;;;5085283;28;20051;-72
2022/03/18 08:00:23;;;;;;;22.73;6.38;;;7.30;99.90;;;;;;5101515;28;20024;-72
2022/03/18 08:02:51;;;;;;;21.33;7.00;;;7.40;99.90;;;;;;5085003;28;20430;-72
2022/03/18 08:05:17;;;;;;;11.55;5.80;;;7.50;99.90;;;;;;5072928;28;20078;-71
2022/03/18 08:07:44;;;;;;;12.55;5.93;;;7.50;99.90;;;;;;5070786;28;20081;-71
2022/03/18 08:10:10;;;;;;;23.95;6.55;;;7.50;99.90;;;;;;5073906;28;20033;-72
2022/03/18 08:12:38;;;;;;;14.55;6.22;;;7.60;99.90;;;;;;5064258;28;20029;-70
2022/03/18 08:15:06;;;;;;;14.75;6.13;;;7.70;99.90;;;;;;5064305;28;20075;-69
2022/03/18 08:17:32;;;;;;;16.77;6.30;;;7.70;99.90;;;;;;5071339;28;20024;-69
2022/03/18 08:19:58;;;;;;;18.55;6.72;;;7.70;99.90;;;;;;5064398;28;20343;-71
2022/03/18 08:22:26;;;;;;;14.32;6.75;;;7.70;99.90;;;;;;5065881;28;20052;-71
2022/03/18 08:24:52;;;;;;;29.08;8.98;;;7.80;99.90;;;;;;5075654;28;20021;-74
2022/03/18 08:27:19;;;;;;;46.33;8.65;;;7.70;99.90;;;;;;5076023;28;20193;-76
2022/03/18 08:29:45;;;;;;;21.38;8.63;;;7.90;99.90;;;;;;5089679;28;20020;-74
2022/03/18 08:32:14;;;;;;;25.70;8.57;;;8.00;99.90;;;;;;5067591;28;20197;-73
2022/03/18 08:34:40;;;;;;;22.20;6.88;;;8.00;99.90;;;;;;5068992;28;20025;-77
2022/03/18 08:37:06;;;;;;;22.27;8.25;;;8.10;99.90;;;;;;5047455;28;20044;-73
2022/03/18 08:39:33;;;;;;;18.90;6.85;;;8.10;99.90;;;;;;5064293;28;20035;-74
2022/03/18 08:41:59;;;;;;;14.88;7.00;;;8.30;99.90;;;;;;5048050;28;20035;-73
2022/03/18 08:44:25;;;;;;;14.90;6.43;;;8.40;99.90;;;;;;5083332;28;20051;-79
2022/03/18 08:46:50;;;;;;;18.27;7.60;;;8.50;99.90;;;;;;5081680;28;20032;-81
2022/03/18 08:49:16;;;;;;;17.50;8.18;;;8.50;99.90;;;;;;5094911;28;20192;-76
2022/03/18 08:51:42;;;;;;;18.35;7.93;;;8.50;99.90;;;;;;5063370;28;20101;-71
2022/03/18 08:54:08;;;;;;;13.35;8.02;;;8.60;99.90;;;;;;5065300;28;20059;-72
2022/03/18 08:56:34;;;;;;;13.88;8.30;;;8.70;99.90;;;;;;5070733;28;20240;-76
2022/03/18 08:59:03;;;;;;;14.27;7.97;;;8.70;99.90;;;;;;5073314;28;20342;-76
2022/03/18 09:01:29;;;;;;;14.27;7.65;;;8.90;99.90;;;;;;5078607;28;20020;-74
2022/03/18 09:03:57;;;;;;;19.95;8.13;;;9.10;99.90;;;;;;5065401;28;20045;-77
2022/03/18 09:06:26;;;;;;;17.70;9.02;;;9.10;99.90;;;;;;5062014;28;20114;-75
2022/03/18 09:08:52;;;;;;;16.05;8.68;;;9.40;99.90;;;;;;5050663;28;20028;-72
2022/03/18 09:11:18;;;;;;;12.88;7.60;;;9.40;99.90;;;;;;5047093;28;20293;-76
2022/03/18 09:13:44;;;;;;;12.75;7.72;;;9.50;99.90;;;;;;5061081;28;20021;-77
2022/03/18 09:16:12;;;;;;;14.30;6.72;;;9.50;99.90;;;;;;5063438;28;20040;-76
2022/03/18 09:18:38;;;;;;;10.85;6.88;;;9.60;99.90;;;;;;5054405;28;20260;-78
2022/03/18 09:21:04;;;;;;;15.50;7.07;;;9.40;99.90;;;;;;5083299;28;20027;-75
2022/03/18 09:23:29;;;;;;;16.75;7.57;;;9.40;99.90;;;;;;5100075;28;20284;-73
2022/03/18 09:25:56;;;;;;;14.07;8.50;;;9.40;99.90;;;;;;5083718;28;20406;-76
2022/03/18 09:28:22;;;;;;;15.35;8.02;;;9.30;99.90;;;;;;5064337;28;20020;-75
2022/03/18 09:30:48;;;;;;;16.52;7.70;;;9.30;99.90;;;;;;5079387;28;20085;-74
2022/03/18 09:33:14;;;;;;;16.65;8.38;;;9.40;99.90;;;;;;5079382;28;20031;-75
2022/03/18 09:35:40;;;;;;;29.92;8.65;;;9.50;99.90;;;;;;5071741;28;20024;-72
2022/03/18 09:38:05;;;;;;;21.40;8.05;;;9.50;99.90;;;;;;5082948;28;20096;-74
2022/03/18 09:40:32;;;;;;;21.05;8.00;;;9.50;99.90;;;;;;5100112;28;20242;-76
2022/03/18 09:43:04;;;;;;;26.30;8.45;;;9.60;99.90;;;;;;5075813;28;20025;-77
2022/03/18 09:45:33;;;;;;;24.13;8.48;;;9.60;99.90;;;;;;5069001;28;20246;-74
2022/03/18 09:48:01;;;;;;;15.75;8.23;;;9.60;99.90;;;;;;5080931;28;20031;-76
2022/03/18 09:50:27;;;;;;;12.40;7.53;;;9.60;99.90;;;;;;5098320;28;20227;-76
2022/03/18 09:52:53;;;;;;;18.52;8.10;;;9.70;99.90;;;;;;5083777;28;20219;-75
2022/03/18 09:55:19;;;;;;;26.88;8.75;;;9.90;99.90;;;;;;5083778;28;20024;-77
2022/03/18 09:57:45;;;;;;;38.40;9.98;;;10.00;99.90;;;;;;5060914;28;20029;-73
2022/03/18 10:00:15;;;;;;;34.20;8.07;;;10.20;99.90;;;;;;5065230;28;20016;-75
2022/03/18 10:02:41;;;;;;;29.85;8.82;;;10.30;99.90;;;;;;5069009;28;20028;-77
2022/03/18 10:05:15;;;;;;;15.48;6.95;;;10.40;99.90;;;;;;5078358;28;20024;-74
2022/03/18 10:07:53;;;;;;;17.58;5.05;;;10.40;99.90;;;;;;5078884;28;20029;-74
2022/03/18 10:10:20;;;;;;;21.35;5.40;;;10.50;99.90;;;;;;5063029;28;20028;-75
2022/03/18 10:12:49;;;;;;;15.93;5.65;;;10.60;99.90;;;;;;5074104;28;20204;-77
2022/03/18 10:15:22;;;;;;;17.75;5.25;;;10.70;99.90;;;;;;5093857;28;20031;-76
2022/03/18 10:17:54;;;;;;;16.83;5.20;;;10.80;99.90;;;;;;5082103;28;20215;-76
2022/03/18 10:20:38;;;;;;;16.10;3.78;;;11.00;99.90;;;;;;5060230;28;20021;-77
2022/03/18 10:23:22;;;;;;;18.85;3.60;;;11.20;99.90;;;;;;5067209;28;20108;-75
2022/03/18 10:25:56;;;;;;;15.10;3.70;;;11.30;99.90;;;;;;5062075;28;20017;-75
2022/03/18 10:28:41;;;;;;;14.23;4.00;;;11.40;99.90;;;;;;5062432;28;20032;-77
2022/03/18 10:31:16;;;;;;;10.65;2.80;;;11.50;99.90;;;;;;5062434;28;20067;-73
2022/03/18 10:37:15;;;;;;;14.07;4.00;;;11.70;99.90;;;;;;5051677;28;20112;-76
2022/03/18 10:39:42;;;;;;;16.88;3.53;;;11.90;99.90;;;;;;5074981;28;20025;-77
2022/03/18 10:42:10;;;;;;;12.73;3.13;;;11.90;99.90;;;;;;5082192;28;20032;-79
2022/03/18 10:44:54;;;;;;;15.45;3.38;;;12.00;99.90;;;;;;5049863;28;20079;-77
2022/03/18 10:47:38;;;;;;;12.32;3.47;;;12.20;99.90;;;;;;5073299;28;20032;-78
2022/03/18 10:50:23;;;;;;;15.75;4.45;;;12.20;99.90;;;;;;5082987;28;20093;-76
2022/03/18 10:53:05;;;;;;;14.95;3.70;;;12.30;99.90;;;;;;5081753;28;20016;-81
2022/03/18 10:55:39;;;;;;;13.60;3.58;;;12.30;99.90;;;;;;5082023;28;20037;-77
2022/03/18 10:58:10;;;;;;;11.25;3.30;;;12.50;99.90;;;;;;5080162;28;20352;-81
2022/03/18 11:00:38;;;;;;;14.25;3.88;;;12.60;99.90;;;;;;5065653;28;20020;-75
2022/03/18 11:03:04;;;;;;;12.25;3.03;;;12.60;99.90;;;;;;5063555;28;20027;-79
2022/03/18 11:05:34;;;;;;;10.50;2.85;;;12.60;99.90;;;;;;5096664;28;20024;-75
2022/03/18 11:08:05;;;;;;;17.83;3.65;;;12.60;99.90;;;;;;5064656;28;20031;-78
2022/03/18 11:13:24;;;;;;;17.45;4.45;;;12.60;99.90;;;;;;5067066;28;20028;-76
2022/03/18 11:15:50;;;;;;;14.43;3.60;;;12.60;99.90;;;;;;5069380;28;20025;-76
2022/03/18 11:18:16;;;;;;;13.90;3.45;;;12.70;99.90;;;;;;5067907;28;20016;-75
2022/03/18 11:20:43;;;;;;;13.07;3.30;;;12.80;99.90;;;;;;5083469;28;20087;-76
2022/03/18 11:23:16;;;;;;;14.63;2.80;;;12.80;99.90;;;;;;5065366;28;20023;-75
2022/03/18 11:25:43;;;;;;;14.32;3.40;;;12.90;99.90;;;;;;5064623;28;20021;-82
2022/03/18 11:28:14;;;;;;;15.07;3.33;;;13.00;99.90;;;;;;5055699;28;20338;-78
2022/03/18 11:30:41;;;;;;;12.77;2.97;;;13.10;99.90;;;;;;5084270;28;20048;-77
2022/03/18 11:33:19;;;;;;;16.00;3.20;;;13.10;99.90;;;;;;5083395;28;20021;-78
2022/03/18 11:36:08;;;;;;;11.55;3.30;;;13.10;99.90;;;;;;5068207;28;20282;-82
2022/03/18 11:38:53;;;;;;;10.93;3.25;;;13.20;99.90;;;;;;5079621;28;20207;-79
2022/03/18 11:41:19;;;;;;;11.73;3.70;;;13.20;99.90;;;;;;5066370;28;20249;-80
2022/03/18 11:43:51;;;;;;;10.50;3.28;;;13.30;99.90;;;;;;5081800;28;20044;-78
2022/03/18 11:46:21;;;;;;;20.00;3.78;;;13.40;99.90;;;;;;5065384;28;20025;-81
2022/03/18 11:48:50;;;;;;;18.33;3.35;;;13.50;99.90;;;;;;5064376;28;20029;-75
2022/03/18 11:51:34;;;;;;;15.98;3.67;;;13.70;99.90;;;;;;5081178;28;20342;-76
2022/03/18 11:54:12;;;;;;;11.15;2.92;;;13.80;99.90;;;;;;5064978;28;20032;-77
2022/03/18 11:56:55;;;;;;;14.80;2.95;;;13.80;99.90;;;;;;5085119;28;20032;-81
2022/03/18 11:59:46;;;;;;;10.27;3.22;;;13.80;99.90;;;;;;5066412;28;20024;-77
2022/03/18 12:02:14;;;;;;;14.50;2.90;;;13.90;99.90;;;;;;5082724;28;20051;-74
2022/03/18 12:04:43;;;;;;;14.10;3.13;;;13.90;99.90;;;;;;5098939;28;20261;-74
2022/03/18 12:07:11;;;;;;;11.77;3.08;;;13.90;99.80;;;;;;5082250;28;20033;-73
2022/03/18 12:10:03;;;;;;;13.20;2.80;;;13.80;99.70;;;;;;5064687;28;20037;-73
2022/03/18 12:12:32;;;;;;;12.10;3.22;;;13.80;99.80;;;;;;5067365;28;20305;-75
2022/03/18 12:15:15;;;;;;;11.90;2.65;;;14.00;99.90;;;;;;5085203;28;20036;-73
2022/03/18 12:17:51;;;;;;;12.48;2.97;;;14.10;99.60;;;;;;5085598;28;20278;-70
2022/03/18 12:20:30;;;;;;;15.00;2.60;;;14.10;99.00;;;;;;5085701;28;20024;-74
2022/03/18 12:22:57;;;;;;;18.83;3.10;;;14.20;99.40;;;;;;5097346;28;20374;-75
2022/03/18 12:25:23;;;;;;;15.52;2.80;;;14.40;99.00;;;;;;5063943;28;20025;-76
2022/03/18 12:27:50;;;;;;;13.52;2.72;;;14.50;98.50;;;;;;5065381;28;20039;-74
2022/03/18 12:30:20;;;;;;;11.63;2.28;;;14.60;98.40;;;;;;5052187;28;20312;-73
2022/03/18 12:32:52;;;;;;;15.13;2.88;;;14.60;97.90;;;;;;5073967;28;20095;-73
2022/03/18 12:35:19;;;;;;;;;;;14.50;97.80;;;;;;5065103;28;20086;-74
2022/03/18 12:37:46;;;;;;;9.55;2.45;;;14.50;98.00;;;;;;5071554;28;20206;-76
2022/03/18 12:40:14;;;;;;;13.80;2.78;;;14.60;97.80;;;;;;5081345;28;20029;-77
2022/03/18 12:42:56;;;;;;;10.38;2.55;;;14.60;97.90;;;;;;5067187;28;20359;-75
2022/03/18 12:45:25;;;;;;;13.82;2.70;;;14.60;97.30;;;;;;5065862;28;20342;-77
2022/03/18 12:47:54;;;;;;;11.85;2.15;;;14.50;97.50;;;;;;5072580;28;20026;-75
2022/03/18 12:50:24;;;;;;;12.73;2.50;;;14.40;97.80;;;;;;5063602;28;20075;-76
2022/03/18 12:52:50;;;;;;;11.63;2.65;;;14.40;97.80;;;;;;5079071;28;20028;-74
2022/03/18 12:55:18;;;;;;;12.63;2.80;;;14.40;97.70;;;;;;5063366;28;20048;-74
2022/03/18 12:57:44;;;;;;;15.82;2.90;;;14.50;98.10;;;;;;5063770;28;20301;-72
2022/03/18 13:00:13;;;;;;;13.95;2.60;;;14.60;98.20;;;;;;5079795;28;20075;-74
2022/03/18 13:02:41;;;;;;;10.98;2.40;;;14.70;97.30;;;;;;5066249;28;20036;-76
2022/03/18 13:05:08;;;;;;;14.73;2.67;;;14.60;97.20;;;;;;5098585;28;20265;-74